This is the latest recevied weather packets stored in our database for station/object K7UHP. If no packets are shown the sender has not sent any weather packets the latest 10 day(s).
| Time | Temp. | Humidity | Pressure | Rain* | Wind** | Luminosity | Snow |
|---|---|---|---|---|---|---|---|
| 1777791182 | 15° C | 28% | 1016.3 hPa | 0 mm | - | - | - |
| 1777790582 | 15° C | 27% | 1016.3 hPa | 0 mm | - | - | - |
| 1777789981 | 15° C | 28% | 1016.2 hPa | 0 mm | - | - | - |
| 1777789380 | 15.56° C | 29% | 1016.2 hPa | 0 mm | - | - | - |
| 1777788780 | 15.56° C | 28% | 1016.2 hPa | 0 mm | - | - | - |
| 1777788179 | 16.11° C | 27% | 1016.3 hPa | 0 mm | - | - | - |
| 1777787578 | 16.11° C | 27% | 1016.4 hPa | 0 mm | - | - | - |
| 1777786977 | 16.11° C | 27% | 1016.3 hPa | 0 mm | - | - | - |
| 1777786376 | 16.11° C | 28% | 1016.4 hPa | 0 mm | - | - | - |
| 1777785776 | 16.11° C | 29% | 1016.4 hPa | 0 mm | - | - | - |
| 1777785175 | 16.67° C | 27% | 1016.3 hPa | 0 mm | - | - | - |
| 1777784574 | 16.67° C | 27% | 1016.3 hPa | 0 mm | - | - | - |
| 1777783974 | 16.67° C | 27% | 1016.3 hPa | 0 mm | - | - | - |
| 1777783373 | 16.11° C | 29% | 1016.5 hPa | 0 mm | - | - | - |
| 1777782772 | 16.67° C | 29% | 1016.4 hPa | 0 mm | - | - | - |
| 1777782171 | 17.78° C | 26% | 1016.4 hPa | 0 mm | - | - | - |
| 1777781570 | 17.78° C | 26% | 1016.4 hPa | 0 mm | - | - | - |
| 1777780970 | 17.78° C | 27% | 1016.4 hPa | 0 mm | - | - | - |
| 1777780369 | 17.78° C | 27% | 1016.4 hPa | 0 mm | - | - | - |
| 1777779768 | 18.33° C | 26% | 1016.4 hPa | 0 mm | - | - | - |
| 1777779167 | 18.33° C | 26% | 1016.3 hPa | 0 mm | - | - | - |
| 1777778567 | 18.33° C | 25% | 1016.3 hPa | 0 mm | - | - | - |
| 1777777966 | 18.33° C | 25% | 1016.3 hPa | 0 mm | - | - | - |
| 1777777365 | 18.89° C | 26% | 1016.3 hPa | 0 mm | - | - | - |
| 1777776764 | 18.89° C | 25% | 1016.3 hPa | 0 mm | - | - | - |
* Rain latest hour (hover to see other rain measurements)
** Current wind speed in m/s (hover to see current wind gust speed)